createdAt,value
2023-05-06T00:00:04.589Z,100811.64
2023-05-06T00:02:39.104Z,100816.02
2023-05-06T00:05:06.906Z,100815.06
2023-05-06T00:07:34.124Z,100820.05
2023-05-06T00:10:01.832Z,100818.98
2023-05-06T00:12:28.864Z,100815.88
2023-05-06T00:14:55.830Z,100826.24
2023-05-06T00:17:22.929Z,100830.23
2023-05-06T00:19:49.921Z,100837.61
2023-05-06T00:22:17.469Z,100833.27
2023-05-06T00:24:44.571Z,100835.05
2023-05-06T00:27:11.603Z,100831.93
2023-05-06T00:29:38.659Z,100832.19
2023-05-06T00:32:06.007Z,100831.23
2023-05-06T00:34:33.307Z,100831.53
2023-05-06T00:37:00.502Z,100839.62
2023-05-06T00:39:27.534Z,100843.17
2023-05-06T00:41:59.619Z,100847.09
2023-05-06T00:44:26.665Z,100847.39
2023-05-06T00:46:53.641Z,100842.77
2023-05-06T00:49:20.725Z,100840.95
2023-05-06T00:51:48.194Z,100842.11
2023-05-06T00:54:15.213Z,100844.86
2023-05-06T00:56:42.227Z,100843.52
2023-05-06T00:59:09.346Z,100844.11
2023-05-06T01:01:37.772Z,100848.21
2023-05-06T01:04:05.266Z,100849.71
2023-05-06T01:06:48.487Z,100846.13
2023-05-06T01:09:34.111Z,100849.41
2023-05-06T01:12:10.299Z,100849.46
2023-05-06T01:15:55.981Z,100850.36
2023-05-06T01:18:23.761Z,100862.40
2023-05-06T01:20:51.937Z,100861.00
2023-05-06T01:23:20.454Z,100855.56
2023-05-06T01:25:47.509Z,100854.50
2023-05-06T01:28:16.341Z,100852.20
2023-05-06T01:30:52.768Z,100860.45
2023-05-06T01:33:37.446Z,100862.73
2023-05-06T01:36:43.345Z,100865.71
2023-05-06T01:39:20.923Z,100869.59
2023-05-06T01:41:49.056Z,100876.98
2023-05-06T01:44:16.592Z,100882.09
2023-05-06T01:46:44.716Z,100891.56
2023-05-06T01:49:12.368Z,100892.61
2023-05-06T01:51:39.477Z,100896.78
2023-05-06T01:54:06.562Z,100899.92
2023-05-06T01:56:33.630Z,100904.13
2023-05-06T01:59:01.196Z,100906.60
2023-05-06T02:01:28.271Z,100905.05
2023-05-06T02:03:55.617Z,100904.42
2023-05-06T02:06:22.850Z,100903.74
2023-05-06T02:08:50.162Z,100903.80
2023-05-06T02:11:20.812Z,100900.52
2023-05-06T02:13:49.792Z,100903.94
2023-05-06T02:16:17.977Z,100900.50
2023-05-06T02:18:46.065Z,100904.12
2023-05-06T02:21:13.233Z,100900.31
2023-05-06T02:23:40.236Z,100895.11
2023-05-06T02:26:07.269Z,100889.69
2023-05-06T02:28:34.243Z,100890.98
2023-05-06T02:31:01.232Z,100899.83
2023-05-06T02:33:28.279Z,100902.30
2023-05-06T02:35:55.265Z,100900.40
2023-05-06T02:38:22.368Z,100910.65
2023-05-06T02:40:49.438Z,100913.67
2023-05-06T02:43:16.488Z,100911.94
2023-05-06T02:45:43.491Z,100920.58
2023-05-06T02:48:11.461Z,100926.21
2023-05-06T02:50:38.582Z,100929.41
2023-05-06T02:53:05.634Z,100928.77
2023-05-06T02:55:32.741Z,100928.29
2023-05-06T02:57:59.775Z,100932.52
2023-05-06T03:00:26.813Z,100937.64
2023-05-06T03:02:53.894Z,100946.48
2023-05-06T03:05:21.345Z,100946.17
2023-05-06T03:07:48.511Z,100950.24
2023-05-06T03:10:15.635Z,100950.44
2023-05-06T03:12:42.850Z,100954.68
2023-05-06T03:15:10.441Z,100953.99
2023-05-06T03:17:38.503Z,100958.86
2023-05-06T03:20:08.620Z,100958.69
2023-05-06T03:22:36.660Z,100966.80
2023-05-06T03:25:03.933Z,100965.23
2023-05-06T03:27:31.916Z,100975.23
2023-05-06T03:30:02.993Z,100975.94
2023-05-06T03:32:31.084Z,100975.13
2023-05-06T03:34:59.145Z,100974.19
2023-05-06T03:37:26.352Z,100973.88
2023-05-06T03:39:55.055Z,100979.58
2023-05-06T03:42:24.561Z,100979.55
2023-05-06T03:44:51.745Z,100981.96
2023-05-06T03:47:19.030Z,100984.36
2023-05-06T03:49:46.186Z,100987.66
2023-05-06T03:52:13.464Z,100987.98
2023-05-06T03:54:40.558Z,100991.58
2023-05-06T03:57:07.860Z,101001.45
2023-05-06T03:59:35.003Z,101000.77
2023-05-06T04:02:03.020Z,101021.64
2023-05-06T04:04:31.208Z,101024.08
2023-05-06T04:06:58.329Z,101024.16
2023-05-06T04:09:25.449Z,101029.69
2023-05-06T04:11:53.120Z,101034.17
2023-05-06T04:14:21.350Z,101024.54
2023-05-06T04:16:48.532Z,101017.22
2023-05-06T04:19:17.968Z,101010.55
2023-05-06T04:21:45.367Z,101015.09
2023-05-06T04:24:14.050Z,101006.69
2023-05-06T04:26:42.238Z,101003.86
2023-05-06T04:29:09.696Z,101009.39
2023-05-06T04:31:42.021Z,101010.85
2023-05-06T04:34:11.576Z,101020.02
2023-05-06T04:36:40.586Z,101024.05
2023-05-06T04:39:18.461Z,101021.81
2023-05-06T04:41:46.373Z,101016.55
2023-05-06T04:44:17.046Z,101004.69
2023-05-06T04:46:45.020Z,101000.71
2023-05-06T04:49:12.671Z,100992.42
2023-05-06T04:51:40.235Z,100987.32
2023-05-06T04:54:07.521Z,100983.27
2023-05-06T04:56:34.940Z,100990.04
2023-05-06T04:59:01.901Z,100981.96
2023-05-06T05:01:29.396Z,100979.27
2023-05-06T05:03:56.517Z,100986.10
2023-05-06T05:06:24.446Z,100992.61
2023-05-06T05:08:53.841Z,100975.83
2023-05-06T05:11:23.489Z,100969.41
2023-05-06T05:13:50.941Z,100962.11
2023-05-06T05:16:18.086Z,100965.81
2023-05-06T05:18:45.983Z,100955.50
2023-05-06T05:21:17.569Z,100945.91
2023-05-06T05:23:44.660Z,100951.73
2023-05-06T05:26:11.661Z,100945.88
2023-05-06T05:28:39.402Z,100949.32
2023-05-06T05:31:08.947Z,100948.52
2023-05-06T05:33:37.443Z,100941.05
2023-05-06T05:36:06.415Z,100942.77
2023-05-06T05:38:34.377Z,100941.19
2023-05-06T05:41:02.049Z,100938.90
2023-05-06T05:43:29.617Z,100931.36
2023-05-06T05:45:57.122Z,100932.29
2023-05-06T05:48:24.306Z,100924.85
2023-05-06T05:50:52.284Z,100934.45
2023-05-06T05:53:19.769Z,100932.35
2023-05-06T05:55:46.862Z,100934.61
2023-05-06T05:58:14.732Z,100931.73
2023-05-06T06:00:42.273Z,100922.85
2023-05-06T06:03:11.560Z,100923.55
2023-05-06T06:05:38.806Z,100923.65
2023-05-06T06:08:06.823Z,100922.70
2023-05-06T06:10:34.407Z,100922.30
2023-05-06T06:13:03.750Z,100918.52
2023-05-06T06:15:31.996Z,100924.29
2023-05-06T06:17:59.240Z,100924.05
2023-05-06T06:20:27.067Z,100923.91
2023-05-06T06:22:54.232Z,100922.83
2023-05-06T06:25:21.876Z,100927.05
2023-05-06T06:27:48.947Z,100924.13
2023-05-06T06:30:16.230Z,100924.04
2023-05-06T06:32:53.703Z,100926.88
2023-05-06T06:35:20.858Z,100931.99
2023-05-06T06:37:47.989Z,100927.35
2023-05-06T06:40:15.345Z,100928.86
2023-05-06T06:42:42.421Z,100928.77
2023-05-06T06:45:30.295Z,100937.14
2023-05-06T06:47:57.588Z,100931.44
2023-05-06T06:50:24.674Z,100930.28
2023-05-06T06:52:51.709Z,100931.59
2023-05-06T06:55:18.699Z,100939.48
2023-05-06T06:57:45.698Z,100938.61
2023-05-06T07:00:13.328Z,100938.27
2023-05-06T07:02:40.423Z,100939.36
2023-05-06T07:05:07.916Z,100936.17
2023-05-06T07:07:35.392Z,100927.19
2023-05-06T07:10:02.456Z,100933.61
2023-05-06T07:12:29.504Z,100933.57
2023-05-06T07:14:56.535Z,100936.99
2023-05-06T07:17:23.690Z,100932.56
2023-05-06T07:19:50.844Z,100937.09
2023-05-06T07:22:17.905Z,100940.69
2023-05-06T07:24:44.951Z,100940.52
2023-05-06T07:27:12.719Z,100950.10
2023-05-06T07:29:40.516Z,100955.29
2023-05-06T07:32:07.781Z,100942.86
2023-05-06T07:34:36.309Z,100947.89
2023-05-06T07:37:04.073Z,100941.94
2023-05-06T07:39:31.458Z,100943.10
2023-05-06T07:41:58.479Z,100932.14
2023-05-06T07:44:25.571Z,100946.66
2023-05-06T07:46:52.804Z,100935.89
2023-05-06T07:49:20.431Z,100936.42
2023-05-06T07:51:47.557Z,100938.65
2023-05-06T07:54:14.656Z,100938.31
2023-05-06T07:56:41.628Z,100940.20
2023-05-06T07:59:08.847Z,100931.91
2023-05-06T08:01:36.237Z,100941.56
2023-05-06T08:04:03.415Z,100938.21
2023-05-06T08:06:30.692Z,100943.45
2023-05-06T08:08:57.669Z,100948.95
2023-05-06T08:11:24.728Z,100949.11
2023-05-06T08:13:51.780Z,100943.54
2023-05-06T08:16:18.970Z,100937.95
2023-05-06T08:18:46.118Z,100939.19
2023-05-06T08:21:13.088Z,100944.27
2023-05-06T08:23:40.205Z,100945.17
2023-05-06T08:26:07.272Z,100941.52
2023-05-06T08:28:34.307Z,100949.38
2023-05-06T08:31:01.313Z,100944.63
2023-05-06T08:33:30.896Z,100936.51
2023-05-06T08:35:58.847Z,100938.02
2023-05-06T08:38:26.258Z,100945.38
2023-05-06T08:40:54.594Z,100945.45
2023-05-06T08:43:21.843Z,100950.17
2023-05-06T08:45:49.422Z,100948.05
2023-05-06T08:48:17.139Z,100957.52
2023-05-06T08:55:17.893Z,100959.77
2023-05-06T08:57:45.546Z,100970.70
2023-05-06T09:00:13.260Z,100959.40
2023-05-06T09:02:42.924Z,100953.59
2023-05-06T09:05:11.861Z,100959.52
2023-05-06T09:07:39.414Z,100954.80
2023-05-06T09:14:49.956Z,100954.92
2023-05-06T09:17:24.533Z,100955.96
2023-05-06T09:19:53.334Z,100952.40
2023-05-06T09:22:27.765Z,100950.56
2023-05-06T09:24:57.778Z,100959.85
2023-05-06T09:27:28.871Z,100951.80
2023-05-06T09:30:14.775Z,100949.20
2023-05-06T09:32:42.212Z,100940.19
2023-05-06T09:35:10.833Z,100967.98
2023-05-06T09:37:38.057Z,100956.89
2023-05-06T09:40:06.178Z,100954.85
2023-05-06T09:42:33.338Z,100940.61
2023-05-06T09:45:07.573Z,100939.80
2023-05-06T09:47:35.407Z,100943.14
2023-05-06T09:50:03.175Z,100951.27
2023-05-06T09:52:30.967Z,100943.50
2023-05-06T09:54:58.513Z,100940.20
2023-05-06T09:57:25.825Z,100944.94
2023-05-06T09:59:53.156Z,100938.11
2023-05-06T10:02:20.292Z,100937.20
2023-05-06T10:04:48.990Z,100937.64
2023-05-06T10:07:18.016Z,100940.86
2023-05-06T10:09:44.997Z,100944.75
2023-05-06T10:12:12.174Z,100939.21
2023-05-06T10:14:39.323Z,100933.66
2023-05-06T10:17:07.894Z,100938.10
2023-05-06T10:19:35.421Z,100941.89
2023-05-06T10:22:27.241Z,100945.90
2023-05-06T10:25:07.088Z,100933.17
2023-05-06T10:27:36.021Z,100941.58
2023-05-06T10:30:03.262Z,100932.52
2023-05-06T10:32:32.477Z,100934.88
2023-05-06T10:35:05.932Z,100946.68
2023-05-06T10:37:33.073Z,100946.75
2023-05-06T10:40:00.218Z,100944.40
2023-05-06T10:42:28.646Z,100953.10
2023-05-06T10:45:05.285Z,100939.70
2023-05-06T10:47:58.344Z,100939.06
2023-05-06T10:50:26.194Z,100945.61
2023-05-06T10:52:55.722Z,100945.13
2023-05-06T10:55:33.617Z,100933.77
2023-05-06T10:58:02.249Z,100934.66
2023-05-06T11:00:33.014Z,100929.74
2023-05-06T11:03:07.427Z,100928.45
2023-05-06T11:05:48.844Z,100932.90
2023-05-06T11:08:16.908Z,100931.05
2023-05-06T11:10:44.073Z,100938.69
2023-05-06T11:13:27.954Z,100930.30
2023-05-06T11:15:58.477Z,100937.64
2023-05-06T11:18:29.280Z,100939.52
2023-05-06T11:25:41.525Z,100930.77
2023-05-06T11:28:12.549Z,100932.18
2023-05-06T11:30:42.143Z,100916.38
2023-05-06T11:33:15.785Z,100927.82
2023-05-06T11:35:42.837Z,100925.13
2023-05-06T11:38:09.921Z,100919.70
2023-05-06T11:40:36.994Z,100919.86
2023-05-06T11:43:13.960Z,100926.46
2023-05-06T11:45:45.256Z,100928.80
2023-05-06T11:48:13.381Z,100928.56
2023-05-06T11:50:50.429Z,100927.86
2023-05-06T11:53:19.270Z,100929.27
2023-05-06T11:55:46.522Z,100933.73
2023-05-06T11:58:21.200Z,100926.75
2023-05-06T12:00:51.487Z,100929.36
2023-05-06T12:03:20.020Z,100926.19
2023-05-06T12:05:50.031Z,100928.35
2023-05-06T12:08:33.322Z,100918.03
2023-05-06T12:11:03.396Z,100910.29
2023-05-06T12:18:02.412Z,100906.20
2023-05-06T12:20:29.728Z,100911.39
2023-05-06T12:27:40.893Z,100898.05
2023-05-06T12:30:09.638Z,100900.23
2023-05-06T12:32:37.227Z,100896.05
2023-05-06T12:35:07.583Z,100900.51
2023-05-06T12:37:34.744Z,100910.63
2023-05-06T12:40:01.828Z,100910.13
2023-05-06T12:42:28.948Z,100907.52
2023-05-06T12:44:56.291Z,100908.76
2023-05-06T12:47:24.976Z,100912.89
2023-05-06T12:49:52.893Z,100904.42
2023-05-06T12:52:21.013Z,100906.40
2023-05-06T12:54:48.290Z,100903.84
2023-05-06T12:57:15.804Z,100907.20
2023-05-06T12:59:43.547Z,100912.73
2023-05-06T13:02:11.260Z,100907.42
2023-05-06T13:04:38.421Z,100913.62
2023-05-06T13:07:05.676Z,100913.20
2023-05-06T13:09:32.873Z,100914.64
2023-05-06T13:12:00.040Z,100912.27
2023-05-06T13:14:27.129Z,100909.09
2023-05-06T13:16:54.304Z,100914.95
2023-05-06T13:19:32.273Z,100921.21
2023-05-06T13:22:00.858Z,100914.54
2023-05-06T13:24:28.633Z,100922.73
2023-05-06T13:26:57.229Z,100923.34
2023-05-06T13:29:24.989Z,100922.52
2023-05-06T13:33:37.954Z,100921.09
2023-05-06T13:36:05.692Z,100922.58
2023-05-06T13:38:32.810Z,100921.75
2023-05-06T13:41:00.230Z,100925.16
2023-05-06T13:43:27.273Z,100914.70
2023-05-06T13:45:54.279Z,100926.77
2023-05-06T13:48:21.435Z,100924.33
2023-05-06T13:50:48.484Z,100924.85
2023-05-06T13:53:15.495Z,100922.94
2023-05-06T13:55:47.023Z,100924.48
2023-05-06T13:58:14.485Z,100935.94
2023-05-06T14:00:41.809Z,100928.23
2023-05-06T14:03:08.961Z,100929.13
2023-05-06T14:05:36.087Z,100936.75
2023-05-06T14:08:03.380Z,100929.29
2023-05-06T14:10:30.436Z,100931.69
2023-05-06T14:12:57.521Z,100932.02
2023-05-06T14:15:24.550Z,100930.50
2023-05-06T14:17:51.668Z,100935.11
2023-05-06T14:20:18.965Z,100929.42
2023-05-06T14:22:45.956Z,100933.80
2023-05-06T14:25:13.708Z,100926.47
2023-05-06T14:27:41.032Z,100935.55
2023-05-06T14:30:09.888Z,100931.44
2023-05-06T14:32:37.601Z,100939.44
2023-05-06T14:35:05.555Z,100936.95
2023-05-06T14:37:32.754Z,100932.20
2023-05-06T14:39:59.815Z,100935.17
2023-05-06T14:42:26.943Z,100936.25
2023-05-06T14:44:54.381Z,100935.63
2023-05-06T14:47:21.550Z,100937.38
2023-05-06T14:49:48.589Z,100935.96
2023-05-06T14:52:15.660Z,100938.26
2023-05-06T14:54:42.932Z,100939.50
2023-05-06T14:57:10.494Z,100958.08
2023-05-06T14:59:37.862Z,100937.55
2023-05-06T15:02:07.922Z,100936.00
2023-05-06T15:04:35.055Z,100941.96
2023-05-06T15:07:02.928Z,100939.37
2023-05-06T15:09:30.096Z,100934.05
2023-05-06T15:11:57.753Z,100938.07
2023-05-06T15:14:24.830Z,100947.17
2023-05-06T15:16:55.693Z,100945.84
2023-05-06T15:19:22.846Z,100942.58
2023-05-06T15:21:49.862Z,100944.39
2023-05-06T15:24:16.861Z,100946.85
2023-05-06T15:26:43.932Z,100940.85
2023-05-06T15:29:10.960Z,100946.27
2023-05-06T15:31:41.371Z,100941.87
2023-05-06T15:34:09.683Z,100948.85
2023-05-06T15:36:37.327Z,100951.84
2023-05-06T15:39:04.553Z,100948.35
2023-05-06T15:41:32.716Z,100951.70
2023-05-06T15:44:00.416Z,100947.84
2023-05-06T15:46:28.457Z,100951.00
2023-05-06T15:49:12.784Z,100951.05
2023-05-06T15:51:42.927Z,100948.23
2023-05-06T15:54:10.185Z,100946.46
2023-05-06T15:56:41.035Z,100955.36
2023-05-06T15:59:08.879Z,100946.86
2023-05-06T16:02:16.486Z,100943.94
2023-05-06T16:04:24.345Z,100942.83
2023-05-06T16:06:51.610Z,100944.55
2023-05-06T16:09:18.698Z,100946.59
2023-05-06T16:11:45.781Z,100945.00
2023-05-06T16:14:13.126Z,100944.31
2023-05-06T16:16:40.290Z,100952.48
2023-05-06T16:19:07.656Z,100953.72
2023-05-06T16:21:34.726Z,100955.54
2023-05-06T16:24:02.698Z,100961.24
2023-05-06T16:26:29.763Z,100957.77
2023-05-06T16:28:56.760Z,100967.97
2023-05-06T16:31:23.793Z,100963.15
2023-05-06T16:33:51.286Z,100969.75
2023-05-06T16:36:18.319Z,100972.10
2023-05-06T16:38:45.300Z,100976.46
2023-05-06T16:41:12.498Z,100983.09
2023-05-06T16:43:39.556Z,100982.83
2023-05-06T16:46:06.674Z,100982.61
2023-05-06T16:48:33.843Z,100995.73
2023-05-06T16:51:01.536Z,100995.14
2023-05-06T16:53:29.647Z,100995.63
2023-05-06T16:55:56.767Z,100997.19
2023-05-06T16:58:24.208Z,101006.20
2023-05-06T17:00:54.306Z,101009.25
2023-05-06T17:03:21.658Z,101007.84
2023-05-06T17:05:48.731Z,101015.08
2023-05-06T17:08:16.853Z,101015.60
2023-05-06T17:10:43.920Z,101024.98
2023-05-06T17:13:11.172Z,101029.13
2023-05-06T17:15:38.220Z,101039.23
2023-05-06T17:18:05.427Z,101046.02
2023-05-06T17:20:35.671Z,101051.16
2023-05-06T17:23:07.954Z,101050.86
2023-05-06T17:25:34.986Z,101047.45
2023-05-06T17:28:02.027Z,101053.44
2023-05-06T17:30:29.075Z,101059.60
2023-05-06T17:32:56.459Z,101064.45
2023-05-06T17:35:23.473Z,101070.44
2023-05-06T17:37:50.666Z,101075.52
2023-05-06T17:40:17.959Z,101075.44
2023-05-06T17:42:45.047Z,101076.80
2023-05-06T17:45:12.650Z,101076.61
2023-05-06T17:47:39.811Z,101079.90
2023-05-06T17:50:07.208Z,101090.06
2023-05-06T17:52:34.396Z,101092.08
2023-05-06T17:55:23.376Z,101106.27
2023-05-06T17:57:48.715Z,101113.27
2023-05-06T18:00:17.143Z,101108.06
2023-05-06T18:02:44.933Z,101107.46
2023-05-06T18:05:14.024Z,101110.72
2023-05-06T18:07:41.371Z,101113.50
2023-05-06T18:10:09.297Z,101119.56
2023-05-06T18:12:37.217Z,101124.20
2023-05-06T18:15:05.767Z,101123.94
2023-05-06T18:17:32.832Z,101124.59
2023-05-06T18:19:59.884Z,101133.52
2023-05-06T18:22:26.913Z,101134.80
2023-05-06T18:24:55.536Z,101130.63
2023-05-06T18:27:23.115Z,101134.39
2023-05-06T18:29:50.168Z,101132.79
2023-05-06T18:32:18.073Z,101136.46
2023-05-06T18:34:45.240Z,101135.30
2023-05-06T18:37:13.482Z,101134.12
2023-05-06T18:39:43.510Z,101136.30
2023-05-06T18:42:12.712Z,101143.59
2023-05-06T18:44:39.755Z,101143.78
2023-05-06T18:47:06.891Z,101139.08
2023-05-06T18:49:33.989Z,101139.83
2023-05-06T18:52:02.650Z,101142.17
2023-05-06T18:54:29.772Z,101142.69
2023-05-06T18:56:58.048Z,101146.66
2023-05-06T18:59:25.880Z,101151.14
2023-05-06T19:01:52.944Z,101162.67
2023-05-06T19:04:20.012Z,101169.99
2023-05-06T19:06:47.268Z,101171.03
2023-05-06T19:09:14.430Z,101176.48
2023-05-06T19:11:41.434Z,101168.74
2023-05-06T19:14:08.506Z,101169.13
2023-05-06T19:16:36.371Z,101172.02
2023-05-06T19:19:07.185Z,101177.61
2023-05-06T19:21:34.923Z,101174.41
2023-05-06T19:24:02.157Z,101183.37
2023-05-06T19:26:29.200Z,101185.78
2023-05-06T19:28:56.381Z,101186.45
2023-05-06T19:31:23.527Z,101190.27
2023-05-06T19:33:50.886Z,101195.15
2023-05-06T19:36:18.019Z,101194.59
2023-05-06T19:38:45.021Z,101193.90
2023-05-06T19:41:12.245Z,101197.38
2023-05-06T19:43:43.182Z,101198.77
2023-05-06T19:46:11.112Z,101203.17
2023-05-06T19:48:39.242Z,101199.82
2023-05-06T19:51:07.061Z,101202.42
2023-05-06T19:53:34.377Z,101200.07
2023-05-06T19:56:11.971Z,101196.16
2023-05-06T19:58:39.621Z,101199.30
2023-05-06T20:01:06.714Z,101198.55
2023-05-06T20:03:33.957Z,101199.73
2023-05-06T20:06:01.259Z,101207.44
2023-05-06T20:08:28.266Z,101206.84
2023-05-06T20:10:56.084Z,101204.67
2023-05-06T20:13:23.306Z,101207.42
2023-05-06T20:15:51.148Z,101208.42
2023-05-06T20:18:18.485Z,101210.08
2023-05-06T20:20:46.174Z,101201.77
2023-05-06T20:23:13.464Z,101204.04
2023-05-06T20:25:40.881Z,101204.34
2023-05-06T20:28:07.898Z,101206.33
2023-05-06T20:30:34.931Z,101202.39
2023-05-06T20:33:02.280Z,101204.77
2023-05-06T20:35:29.350Z,101206.06
2023-05-06T20:37:56.656Z,101208.43
2023-05-06T20:40:23.964Z,101210.27
2023-05-06T20:42:51.060Z,101208.95
2023-05-06T20:45:18.341Z,101208.34
2023-05-06T20:47:45.687Z,101215.81
2023-05-06T20:50:17.360Z,101219.44
2023-05-06T20:52:46.234Z,101219.71
2023-05-06T20:55:14.919Z,101222.66
2023-05-06T20:57:43.669Z,101225.23
2023-05-06T21:00:11.698Z,101222.69
2023-05-06T21:02:41.306Z,101223.26
2023-05-06T21:05:09.839Z,101223.13
2023-05-06T21:07:37.059Z,101223.35
2023-05-06T21:10:06.102Z,101231.16
2023-05-06T21:12:33.863Z,101231.44
2023-05-06T21:15:01.192Z,101225.74
2023-05-06T21:17:28.844Z,101223.58
2023-05-06T21:19:56.485Z,101224.38
2023-05-06T21:22:23.854Z,101220.77
2023-05-06T21:24:51.484Z,101221.36
2023-05-06T21:27:18.599Z,101222.83
2023-05-06T21:29:45.740Z,101228.70
2023-05-06T21:32:12.785Z,101233.12
2023-05-06T21:34:39.812Z,101232.80
2023-05-06T21:37:06.867Z,101232.86
2023-05-06T21:39:33.947Z,101237.15
2023-05-06T21:42:01.014Z,101241.26
2023-05-06T21:44:28.071Z,101245.34
2023-05-06T21:46:55.156Z,101250.34
2023-05-06T21:49:22.503Z,101250.95
2023-05-06T21:51:49.655Z,101248.40
2023-05-06T21:54:17.517Z,101246.89
2023-05-06T21:56:45.134Z,101251.58
2023-05-06T21:59:12.225Z,101247.27
2023-05-06T22:01:39.336Z,101247.90
2023-05-06T22:04:11.600Z,101244.10
2023-05-06T22:06:39.631Z,101238.55
2023-05-06T22:09:09.865Z,101238.08
2023-05-06T22:11:38.647Z,101238.32
2023-05-06T22:14:06.870Z,101239.05
2023-05-06T22:16:35.808Z,101241.55
2023-05-06T22:19:04.115Z,101238.44
2023-05-06T22:21:32.920Z,101236.05
2023-05-06T22:23:59.911Z,101240.31
2023-05-06T22:26:29.827Z,101240.37
2023-05-06T22:28:56.805Z,101237.80
2023-05-06T22:31:24.989Z,101235.77
2023-05-06T22:33:55.724Z,101227.92
2023-05-06T22:36:22.919Z,101236.73
2023-05-06T22:38:50.118Z,101232.52
2023-05-06T22:41:17.660Z,101234.46
2023-05-06T22:43:44.669Z,101238.17
2023-05-06T22:46:11.707Z,101232.27
2023-05-06T22:48:38.798Z,101230.95
2023-05-06T22:51:05.848Z,101230.81
2023-05-06T22:53:32.810Z,101229.25
2023-05-06T22:55:59.961Z,101223.50
2023-05-06T22:58:27.014Z,101226.33
2023-05-06T23:00:54.340Z,101224.80
2023-05-06T23:03:22.992Z,101231.84
2023-05-06T23:05:50.248Z,101226.96
2023-05-06T23:08:17.230Z,101222.61
2023-05-06T23:10:44.330Z,101218.23
2023-05-06T23:13:12.301Z,101219.14
2023-05-06T23:15:40.255Z,101226.52
2023-05-06T23:18:07.383Z,101223.03
2023-05-06T23:20:34.626Z,101224.08
2023-05-06T23:23:01.642Z,101226.21
2023-05-06T23:25:28.620Z,101222.55
2023-05-06T23:27:55.660Z,101224.54
2023-05-06T23:30:22.725Z,101230.18
2023-05-06T23:32:49.847Z,101226.17
2023-05-06T23:35:16.954Z,101221.67
2023-05-06T23:37:43.992Z,101221.35
2023-05-06T23:40:14.195Z,101224.02
2023-05-06T23:42:41.738Z,101223.71
2023-05-06T23:45:09.893Z,101226.37
2023-05-06T23:47:37.061Z,101227.28
2023-05-06T23:50:04.425Z,101231.88
2023-05-06T23:52:31.502Z,101233.65
2023-05-06T23:54:58.496Z,101227.73
2023-05-06T23:57:25.570Z,101232.70
2023-05-06T23:59:52.591Z,101233.62
